Time;durP1;ratioP1;P1;durP2;ratioP2;P2;SDS_P1;SDS_P2;PMS_P1;PMS_P2;Temp;Humidity;BMP_temperature;BMP_pressure;BME280_temperature;BME280_humidity;BME280_pressure;Samples;Min_cycle;Max_cycle;Signal;HPM_P1;HPM_P2
2022/08/07 00:02:01;;;;;;;4.72;2.47;;;;;;;28.41;49.05;98515.69;6159962;23;20188;-88
2022/08/07 00:04:26;;;;;;;4.70;2.70;;;;;;;28.35;49.36;98516.53;6186412;23;20257;-88
2022/08/07 00:06:52;;;;;;;4.82;2.85;;;;;;;28.31;49.39;98516.13;6185888;23;20212;-88
2022/08/07 00:09:18;;;;;;;5.00;2.60;;;;;;;28.29;49.47;98520.91;6186163;23;20510;-88
2022/08/07 00:11:44;;;;;;;4.93;3.08;;;;;;;28.29;49.33;98522.75;6159814;23;20158;-88
2022/08/07 00:14:09;;;;;;;4.88;2.28;;;;;;;28.27;49.32;98514.91;6186134;23;20269;-88
2022/08/07 00:16:35;;;;;;;3.97;2.40;;;;;;;28.21;49.97;98510.31;6185766;23;20158;-88
2022/08/07 00:19:07;;;;;;;6.22;3.15;;;;;;;28.21;49.15;98517.56;6186013;23;20157;-88
2022/08/07 00:21:32;;;;;;;4.55;2.50;;;;;;;28.23;49.55;98512.78;6185701;23;20146;-88
2022/08/07 00:23:57;;;;;;;6.72;2.72;;;;;;;28.20;49.86;98502.47;6186002;23;20147;-88
2022/08/07 00:26:23;;;;;;;4.20;2.58;;;;;;;28.18;50.14;98510.72;6185562;23;20184;-88
2022/08/07 00:28:48;;;;;;;4.85;2.50;;;;;;;28.15;49.86;98510.31;6185985;23;20233;-88
2022/08/07 00:31:14;;;;;;;5.18;2.88;;;;;;;28.13;50.49;98501.59;6185614;23;20178;-88
2022/08/07 00:33:39;;;;;;;5.93;2.75;;;;;;;28.12;50.12;98500.78;6185641;23;20150;-88
2022/08/07 00:36:06;;;;;;;4.43;2.67;;;;;;;28.10;50.57;98497.47;6185908;23;20151;-88
2022/08/07 00:38:34;;;;;;;5.07;2.85;;;;;;;28.03;51.03;98500.19;6185945;23;20625;-88
2022/08/07 00:41:00;;;;;;;4.85;2.72;;;;;;;27.94;50.65;98504.06;6185617;23;20172;-88
2022/08/07 00:43:26;;;;;;;7.43;2.83;;;;;;;27.99;49.44;98498.03;6185615;23;20174;-88
2022/08/07 00:45:52;;;;;;;5.45;2.90;;;;;;;27.89;49.77;98497.63;6159545;23;20202;-88
2022/08/07 00:48:17;;;;;;;5.07;2.70;;;;;;;27.72;50.37;98493.69;6185525;23;20159;-88
2022/08/07 00:51:07;;;;;;;5.28;3.00;;;;;;;27.58;50.77;98502.75;6159584;23;20161;-88
2022/08/07 00:53:32;;;;;;;4.65;2.72;;;;;;;27.50;51.06;98497.56;6185922;23;20146;-88
2022/08/07 00:55:58;;;;;;;4.35;2.33;;;;;;;27.52;50.62;98498.19;6185509;23;20151;-88
2022/08/07 00:58:23;;;;;;;4.05;2.60;;;;;;;27.58;50.19;98498.22;6186169;23;20177;-88
2022/08/07 01:00:50;;;;;;;4.45;2.92;;;;;;;27.56;50.06;98496.75;6185441;23;20626;-88
2022/08/07 01:03:17;;;;;;;5.65;3.13;;;;;;;27.51;50.50;98494.69;6185439;23;20217;-88
2022/08/07 01:05:44;;;;;;;6.70;2.80;;;;;;;27.39;51.10;98497.13;6185386;23;20241;-88
2022/08/07 01:08:10;;;;;;;5.13;3.17;;;;;;;27.36;51.02;98497.50;6187146;23;20155;-89
2022/08/07 01:10:35;;;;;;;5.60;3.00;;;;;;;27.31;51.16;98499.97;6161433;23;20178;-89
2022/08/07 01:13:01;;;;;;;5.72;2.58;;;;;;;27.26;51.55;98494.34;6187834;23;20158;-88
2022/08/07 01:15:27;;;;;;;5.35;3.00;;;;;;;27.18;52.17;98481.09;6161747;23;20154;-88
2022/08/07 01:17:53;;;;;;;5.60;2.92;;;;;;;27.06;52.96;98488.09;6187483;23;20216;-89
2022/08/07 01:20:25;;;;;;;4.82;2.85;;;;;;;26.96;53.26;98479.56;6187382;23;20583;-88
2022/08/07 01:22:50;;;;;;;5.30;3.17;;;;;;;26.90;53.36;98485.72;6188135;23;20139;-89
2022/08/07 01:25:17;;;;;;;4.75;2.65;;;;;;;26.86;52.95;98478.28;6187268;23;20667;-88
2022/08/07 01:27:42;;;;;;;4.57;2.88;;;;;;;26.93;52.24;98477.28;6161338;23;20158;-88
2022/08/07 01:30:09;;;;;;;5.80;2.92;;;;;;;26.90;52.58;98483.03;6161395;23;20158;-89
2022/08/07 01:32:34;;;;;;;5.57;2.93;;;;;;;26.85;52.29;98480.13;6187703;23;20147;-88
2022/08/07 01:35:01;;;;;;;6.53;3.83;;;;;;;26.84;52.21;98483.84;6187630;23;20153;-88
2022/08/07 01:37:26;;;;;;;5.30;3.13;;;;;;;26.77;52.64;98491.03;6161288;23;20226;-89
2022/08/07 01:39:52;;;;;;;4.90;2.90;;;;;;;26.78;52.13;98485.47;6187739;23;20182;-88
2022/08/07 01:42:18;;;;;;;7.37;3.23;;;;;;;26.77;52.08;98483.81;6187559;23;20166;-88
2022/08/07 01:44:44;;;;;;;6.17;2.97;;;;;;;26.74;52.21;98486.88;6187089;23;20174;-89
2022/08/07 01:47:09;;;;;;;5.80;3.10;;;;;;;26.68;52.64;98484.97;6161556;23;20154;-89
2022/08/07 01:49:36;;;;;;;6.23;3.20;;;;;;;26.67;52.46;98483.31;6187485;23;20586;-88
2022/08/07 01:52:04;;;;;;;5.53;2.95;;;;;;;26.70;52.71;98482.91;6187118;23;20150;-88
2022/08/07 01:54:34;;;;;;;9.50;4.00;;;;;;;26.71;52.33;98491.78;6161538;23;20150;-88
2022/08/07 01:57:22;;;;;;;5.97;3.00;;;;;;;26.63;52.55;98484.72;6187780;23;20161;-88
2022/08/07 01:59:47;;;;;;;6.03;3.67;;;;;;;26.54;53.22;98488.63;6187983;23;20161;-89
2022/08/07 02:02:45;;;;;;;5.47;3.43;;;;;;;26.50;53.04;98486.50;6187030;23;20525;-89
2022/08/07 02:05:22;;;;;;;7.27;3.17;;;;;;;26.44;53.74;98488.13;6187285;23;20590;-89
2022/08/07 02:07:52;;;;;;;7.27;2.97;;;;;;;26.40;53.85;98483.34;6187708;23;20142;-89
2022/08/07 02:10:22;;;;;;;5.90;3.17;;;;;;;26.44;53.66;98485.44;6186954;23;20471;-89
2022/08/07 02:12:48;;;;;;;6.43;3.10;;;;;;;26.46;53.38;98477.19;6187604;23;20221;-88
2022/08/07 02:15:15;;;;;;;6.53;3.37;;;;;;;26.34;54.45;98470.69;6186926;23;20180;-88
2022/08/07 02:17:43;;;;;;;6.37;3.10;;;;;;;26.26;54.83;98474.34;6186859;23;20150;-88
2022/08/07 02:20:10;;;;;;;6.43;3.43;;;;;;;26.36;55.25;98476.72;6186427;23;20151;-89
2022/08/07 02:22:39;;;;;;;6.43;3.40;;;;;;;26.31;56.03;98471.91;6186805;23;20204;-88
2022/08/07 02:25:06;;;;;;;5.07;2.90;;;;;;;26.27;56.67;98470.66;6187439;23;20174;-89
2022/08/07 02:27:33;;;;;;;6.70;2.83;;;;;;;26.21;57.01;98476.78;6187481;23;20238;-88
2022/08/07 02:30:00;;;;;;;4.80;2.23;;;;;;;26.12;57.71;98484.19;6160823;23;20233;-88
2022/08/07 02:32:26;;;;;;;6.57;3.17;;;;;;;26.16;57.30;98484.63;6160819;23;20221;-89
2022/08/07 02:34:53;;;;;;;6.63;3.47;;;;;;;26.20;57.44;98478.63;6187385;23;20147;-89
2022/08/07 02:37:20;;;;;;;6.67;3.63;;;;;;;26.28;57.10;98479.53;6187352;23;20225;-89
2022/08/07 02:39:47;;;;;;;6.43;3.63;;;;;;;26.29;57.21;98475.81;6186598;23;20229;-88
2022/08/07 02:42:14;;;;;;;5.33;3.00;;;;;;;26.28;57.35;98482.22;6187042;23;20135;-89
2022/08/07 02:44:42;;;;;;;5.50;3.37;;;;;;;26.20;57.84;98480.53;6186583;23;20252;-88
2022/08/07 02:47:10;;;;;;;9.53;4.20;;;;;;;26.27;57.40;98486.78;6186861;23;20177;-89
2022/08/07 02:49:35;;;;;;;6.80;3.77;;;;;;;26.24;57.38;98485.31;6186519;23;20154;-88
2022/08/07 02:52:03;;;;;;;6.13;3.50;;;;;;;26.28;57.18;98496.50;6187204;23;20158;-88
2022/08/07 02:54:31;;;;;;;5.33;3.33;;;;;;;26.23;57.26;98498.94;6186547;23;20185;-88
2022/08/07 02:57:00;;;;;;;5.80;3.03;;;;;;;26.23;57.26;98496.25;6186564;23;20674;-88
2022/08/07 02:59:27;;;;;;;5.50;3.07;;;;;;;26.15;57.42;98497.22;6186782;23;20165;-88
2022/08/07 03:01:54;;;;;;;6.30;3.50;;;;;;;26.11;58.02;98492.41;6186467;23;20485;-88
2022/08/07 03:04:21;;;;;;;6.50;3.17;;;;;;;26.04;58.53;98486.97;6186336;23;20579;-88
2022/08/07 03:06:49;;;;;;;7.93;4.43;;;;;;;26.07;58.29;98491.94;6186342;23;20154;-89
2022/08/07 03:09:17;;;;;;;5.70;3.27;;;;;;;26.02;58.36;98489.00;6186797;23;20181;-88
2022/08/07 03:11:44;;;;;;;8.33;3.93;;;;;;;26.00;58.53;98490.22;6186412;23;20146;-88
2022/08/07 03:14:11;;;;;;;7.70;3.83;;;;;;;25.90;59.10;98501.31;6186362;23;20157;-89
2022/08/07 03:16:37;;;;;;;8.17;3.80;;;;;;;25.87;58.96;98496.31;6186351;23;20185;-89
2022/08/07 03:19:03;;;;;;;6.63;3.20;;;;;;;25.83;59.57;98494.22;6186638;23;20156;-88
2022/08/07 03:21:29;;;;;;;8.80;4.17;;;;;;;25.86;59.38;98500.06;6186236;23;20225;-88
2022/08/07 03:23:56;;;;;;;7.40;3.77;;;;;;;25.92;59.21;98504.63;6186281;23;20150;-89
2022/08/07 03:26:25;;;;;;;7.43;3.57;;;;;;;25.93;59.21;98508.16;6160173;23;20182;-88
2022/08/07 03:28:53;;;;;;;8.10;4.60;;;;;;;25.90;59.26;98516.59;6186199;23;20158;-88
2022/08/07 03:31:21;;;;;;;5.70;3.37;;;;;;;25.91;59.09;98518.25;6160236;23;20654;-88
2022/08/07 03:33:54;;;;;;;6.83;4.17;;;;;;;25.87;59.76;98512.44;6186154;23;20152;-88
2022/08/07 03:36:22;;;;;;;9.90;3.77;;;;;;;25.93;58.97;98516.22;6160184;23;20139;-88
2022/08/07 03:38:51;;;;;;;8.77;3.67;;;;;;;25.97;59.33;98522.88;6186733;23;20185;-88
2022/08/07 03:41:17;;;;;;;6.90;3.97;;;;;;;26.00;59.32;98528.66;6186079;23;20183;-88
2022/08/07 03:43:43;;;;;;;7.23;4.47;;;;;;;25.98;59.14;98525.34;6186016;23;20263;-88
2022/08/07 03:46:10;;;;;;;6.97;3.90;;;;;;;25.98;59.14;98528.03;6159964;23;20182;-88
2022/08/07 03:48:36;;;;;;;10.67;4.93;;;;;;;25.99;59.30;98528.88;6186017;23;20154;-89
2022/08/07 03:51:03;;;;;;;7.70;3.87;;;;;;;25.87;59.94;98533.91;6185998;23;20484;-89
2022/08/07 03:53:29;;;;;;;8.97;4.20;;;;;;;25.92;59.51;98530.66;6186280;23;20154;-89
2022/08/07 03:55:58;;;;;;;7.27;4.27;;;;;;;25.99;59.49;98536.94;6186308;23;20197;-89
2022/08/07 03:58:24;;;;;;;6.57;4.10;;;;;;;26.05;59.02;98528.91;6185932;23;20229;-88
2022/08/07 04:00:52;;;;;;;7.83;4.13;;;;;;;26.10;58.89;98529.16;6185850;23;20147;-89
2022/08/07 04:03:18;;;;;;;9.03;4.30;;;;;;;26.15;58.81;98542.88;6185892;23;20147;-89
2022/08/07 04:05:43;;;;;;;6.87;3.77;;;;;;;26.21;58.63;98539.44;6186118;23;20170;-89
2022/08/07 04:08:11;;;;;;;6.00;3.77;;;;;;;26.21;58.75;98536.75;6159954;23;20543;-88
2022/08/07 04:10:38;;;;;;;7.87;4.20;;;;;;;26.19;59.20;98537.97;6186109;23;20154;-88
2022/08/07 04:13:06;;;;;;;6.73;3.93;;;;;;;26.10;59.26;98549.84;6186181;23;20150;-88
2022/08/07 04:15:32;;;;;;;8.13;4.50;;;;;;;26.12;59.63;98553.16;6159808;23;20154;-88
2022/08/07 04:17:58;;;;;;;8.73;4.43;;;;;;;26.13;59.37;98550.31;6185753;23;20540;-88
2022/08/07 04:20:24;;;;;;;9.47;4.33;;;;;;;26.26;59.32;98548.78;6186448;23;20146;-89
2022/08/07 04:22:50;;;;;;;6.53;4.20;;;;;;;26.23;59.39;98548.13;6185735;23;20157;-88
2022/08/07 04:25:17;;;;;;;7.47;4.07;;;;;;;26.30;59.17;98550.03;6185535;23;20610;-89
2022/08/07 04:27:42;;;;;;;7.17;4.00;;;;;;;26.27;59.70;98551.25;6185668;23;20161;-88
2022/08/07 04:30:08;;;;;;;6.80;3.90;;;;;;;26.26;59.42;98556.84;6186340;23;20150;-89
2022/08/07 04:32:35;;;;;;;8.57;4.60;;;;;;;26.27;59.84;98553.09;6185625;23;20161;-89
2022/08/07 04:35:03;;;;;;;7.30;4.53;;;;;;;26.41;59.28;98554.88;6185670;23;20143;-88
2022/08/07 04:37:30;;;;;;;8.20;4.20;;;;;;;26.37;59.57;98562.50;6185584;23;20147;-88
2022/08/07 04:39:56;;;;;;;7.57;4.50;;;;;;;26.43;59.17;98560.88;6185446;23;20150;-88
2022/08/07 04:42:26;;;;;;;5.60;3.67;;;;;;;26.60;58.77;98560.41;6185834;23;20134;-88
2022/08/07 04:44:56;;;;;;;7.43;3.50;;;;;;;26.63;59.09;98564.53;6185577;23;20166;-89
2022/08/07 04:47:47;;;;;;;6.73;3.70;;;;;;;26.65;58.63;98565.22;6185573;23;20567;-89
2022/08/07 04:50:33;;;;;;;6.83;4.17;;;;;;;26.75;58.64;98565.69;6185896;23;20138;-89
2022/08/07 04:53:06;;;;;;;6.63;3.63;;;;;;;26.86;58.34;98564.34;6185887;23;20139;-88
2022/08/07 04:55:51;;;;;;;7.50;3.90;;;;;;;26.93;57.81;98567.88;6185942;23;20141;-88
2022/08/07 04:58:30;;;;;;;6.57;3.57;;;;;;;26.96;58.25;98579.09;6186245;23;20135;-88
2022/08/07 05:01:34;;;;;;;6.97;3.77;;;;;;;27.16;57.72;98568.41;6185863;23;20558;-88
2022/08/07 05:04:12;;;;;;;6.50;3.83;;;;;;;27.26;57.21;98575.09;6184695;23;20153;-88
2022/08/07 05:06:48;;;;;;;5.35;3.70;;;;;;;27.39;56.77;98574.31;6185787;23;20237;-89
2022/08/07 05:09:49;;;;;;;7.13;3.63;;;;;;;27.49;56.31;98580.19;6159653;23;20480;-89
2022/08/07 05:12:22;;;;;;;12.27;4.38;;;;;;;27.59;55.60;98583.34;6151437;23;20154;-90
2022/08/07 05:14:52;;;;;;;6.35;3.75;;;;;;;27.69;55.55;98585.66;6185534;23;20558;-89
2022/08/07 05:17:19;;;;;;;6.05;3.45;;;;;;;27.76;55.21;98581.09;6185422;23;20157;-89
2022/08/07 05:19:48;;;;;;;8.27;3.88;;;;;;;27.85;55.15;98579.91;6186190;23;20657;-89
2022/08/07 05:22:16;;;;;;;5.97;3.85;;;;;;;27.91;55.02;98584.44;6185814;23;20150;-89
2022/08/07 05:24:44;;;;;;;7.50;4.10;;;;;;;27.84;55.32;98592.53;6185266;23;20182;-89
2022/08/07 05:27:13;;;;;;;6.20;3.92;;;;;;;27.94;55.12;98589.44;6185440;23;20181;-89
2022/08/07 05:29:42;;;;;;;7.70;3.92;;;;;;;28.00;54.68;98583.25;6185401;23;20150;-89
2022/08/07 05:32:10;;;;;;;7.07;3.78;;;;;;;28.11;53.84;98590.75;6185687;23;20225;-89
2022/08/07 05:34:36;;;;;;;6.28;3.78;;;;;;;28.09;54.35;98592.84;6185627;23;20146;-89
2022/08/07 05:37:03;;;;;;;6.43;3.85;;;;;;;28.17;54.36;98597.19;6185382;23;20161;-89
2022/08/07 05:39:29;;;;;;;7.22;3.40;;;;;;;28.23;53.38;98604.44;6185442;23;20146;-90
2022/08/07 05:41:55;;;;;;;6.63;3.40;;;;;;;28.41;52.63;98600.09;6159386;23;20174;-89
2022/08/07 05:44:21;;;;;;;6.53;3.88;;;;;;;28.33;52.82;98600.31;6185249;23;20147;-90
2022/08/07 05:46:49;;;;;;;6.25;3.42;;;;;;;28.47;52.62;98593.06;6185302;23;20213;-90
2022/08/07 05:49:15;;;;;;;7.13;3.67;;;;;;;28.71;51.86;98605.09;6159596;23;20155;-89
2022/08/07 05:51:43;;;;;;;5.75;3.75;;;;;;;28.72;51.71;98606.78;6159369;23;20161;-89
2022/08/07 05:54:09;;;;;;;6.25;3.55;;;;;;;28.79;51.87;98608.44;6185734;23;20601;-89
2022/08/07 05:56:36;;;;;;;7.35;3.65;;;;;;;28.91;51.53;98614.84;6161135;23;20241;-89
2022/08/07 05:59:04;;;;;;;7.07;3.88;;;;;;;28.92;52.56;98613.81;6161104;23;20516;-89
2022/08/07 06:01:30;;;;;;;8.90;3.97;;;;;;;29.05;50.86;98604.84;6187068;23;20167;-89
2022/08/07 06:03:57;;;;;;;7.45;4.22;;;;;;;29.15;51.42;98606.06;6162047;23;20233;-89
2022/08/07 06:06:24;;;;;;;6.85;3.85;;;;;;;29.06;49.53;98610.03;6186976;23;20253;-89
2022/08/07 06:08:51;;;;;;;6.25;4.15;;;;;;;29.05;49.38;98618.34;6187342;23;20155;-89
2022/08/07 06:11:17;;;;;;;6.75;4.18;;;;;;;29.10;50.68;98608.59;6187291;23;20151;-89
2022/08/07 06:13:42;;;;;;;6.63;4.05;;;;;;;29.31;50.19;98615.63;6187302;23;20594;-89
2022/08/07 06:16:08;;;;;;;11.00;4.05;;;;;;;29.51;49.66;98621.78;6186888;23;20153;-89
2022/08/07 06:18:34;;;;;;;5.45;3.30;;;;;;;29.41;48.82;98616.00;6186950;23;20178;-89
2022/08/07 06:21:00;;;;;;;13.88;4.28;;;;;;;29.59;49.02;98620.69;6160868;23;20237;-89
2022/08/07 06:23:27;;;;;;;6.25;3.50;;;;;;;29.75;48.22;98625.63;6161287;23;20523;-89
2022/08/07 06:25:53;;;;;;;5.32;3.03;;;;;;;29.85;47.19;98622.50;6186787;23;20258;-90
2022/08/07 06:28:18;;;;;;;6.97;3.60;;;;;;;30.01;46.86;98621.97;6161243;23;20154;-89
2022/08/07 06:30:44;;;;;;;5.88;3.58;;;;;;;30.11;46.91;98622.34;6161946;23;20154;-89
2022/08/07 06:33:09;;;;;;;5.55;3.20;;;;;;;30.37;46.23;98622.22;6186708;23;20175;-89
2022/08/07 06:35:35;;;;;;;7.63;4.45;;;;;;;30.52;46.04;98622.72;6186975;23;20150;-89
2022/08/07 06:38:02;;;;;;;6.28;3.75;;;;;;;30.61;45.74;98612.44;6186751;23;20169;-90
2022/08/07 06:40:34;;;;;;;7.35;3.92;;;;;;;30.92;45.25;98613.19;6186575;23;20162;-89
2022/08/07 06:43:03;;;;;;;7.93;3.83;;;;;;;31.05;44.32;98614.13;6187436;23;20135;-90
2022/08/07 06:45:28;;;;;;;5.45;2.97;;;;;;;31.07;43.96;98599.31;6160718;23;20178;-89
2022/08/07 06:47:54;;;;;;;6.47;2.90;;;;;;;31.38;42.51;98606.47;6186707;23;20212;-90
2022/08/07 06:50:20;;;;;;;5.78;3.45;;;;;;;31.62;42.56;98605.59;6160721;23;20188;-90
2022/08/07 06:52:51;;;;;;;6.68;3.38;;;;;;;31.89;42.28;98606.88;6186898;23;20193;-89
2022/08/07 06:55:24;;;;;;;5.50;3.13;;;;;;;32.01;41.47;98607.81;6186649;23;20130;-90
2022/08/07 06:57:52;;;;;;;5.95;3.10;;;;;;;31.99;41.94;98609.06;6161320;23;20146;-88
2022/08/07 07:00:18;;;;;;;6.53;3.47;;;;;;;32.08;40.50;98613.13;6160728;23;20150;-91
2022/08/07 07:02:46;;;;;;;7.53;3.90;;;;;;;32.35;39.95;98614.38;6160580;23;20209;-90
2022/08/07 07:05:12;;;;;;;5.40;3.15;;;;;;;32.62;39.78;98617.53;6187225;23;20258;-91
2022/08/07 07:07:37;;;;;;;6.38;3.15;;;;;;;32.82;40.14;98615.28;6161886;23;20186;-89
2022/08/07 07:10:03;;;;;;;6.30;3.38;;;;;;;32.75;39.62;98617.31;6186482;23;20177;-90
2022/08/07 07:12:54;;;;;;;6.10;3.47;;;;;;;32.89;39.02;98618.72;6160461;23;20155;-90
2022/08/07 07:15:33;;;;;;;6.50;3.67;;;;;;;33.02;38.60;98620.38;6187111;23;20131;-90
2022/08/07 07:18:21;;;;;;;5.07;3.13;;;;;;;33.21;37.58;98620.03;6186438;23;20229;-90
2022/08/07 07:20:55;;;;;;;5.80;3.42;;;;;;;33.23;37.72;98612.47;6187342;23;20162;-90
2022/08/07 07:23:21;;;;;;;8.18;5.22;;;;;;;33.44;37.06;98626.50;6160356;23;20145;-89
2022/08/07 07:25:52;;;;;;;6.55;3.60;;;;;;;33.51;37.89;98629.91;6160575;23;20507;-91
2022/08/07 07:28:22;;;;;;;5.07;3.10;;;;;;;33.59;37.95;98618.69;6186744;23;20138;-91
2022/08/07 07:30:57;;;;;;;9.48;4.72;;;;;;;33.71;36.97;98622.19;6160996;23;20153;-91
2022/08/07 07:33:25;;;;;;;10.57;4.63;;;;;;;33.98;36.68;98639.63;6161588;23;20229;-91
2022/08/07 07:35:54;;;;;;;5.95;3.10;;;;;;;33.91;36.93;98628.88;6186235;23;20153;-90
2022/08/07 07:38:24;;;;;;;6.70;3.80;;;;;;;33.99;36.79;98608.59;6160345;23;20155;-90
2022/08/07 07:40:53;;;;;;;7.00;2.88;;;;;;;34.11;36.81;98614.88;6186435;23;20173;-90
2022/08/07 07:43:21;;;;;;;6.20;3.53;;;;;;;34.41;35.83;98617.28;6160176;23;20168;-90
2022/08/07 07:45:49;;;;;;;4.75;2.97;;;;;;;34.57;34.46;98620.06;6186133;23;20261;-91
2022/08/07 07:48:19;;;;;;;5.70;3.03;;;;;;;34.55;34.58;98613.19;6161161;23;20170;-91
2022/08/07 07:50:47;;;;;;;4.65;2.80;;;;;;;34.67;35.90;98621.31;6186576;23;20204;-90
2022/08/07 07:53:16;;;;;;;6.28;3.03;;;;;;;34.82;35.72;98613.38;6186809;23;20150;-90
2022/08/07 07:55:42;;;;;;;5.82;3.17;;;;;;;34.86;34.57;98617.25;6186079;23;20217;-90
2022/08/07 07:58:09;;;;;;;6.85;3.58;;;;;;;35.00;34.50;98611.22;6160075;23;20197;-90
2022/08/07 08:00:35;;;;;;;5.47;2.58;;;;;;;34.94;33.97;98605.94;6160069;23;20548;-90
2022/08/07 08:03:12;;;;;;;6.82;2.63;;;;;;;34.78;33.50;98612.22;6186449;23;20146;-91
2022/08/07 08:05:41;;;;;;;3.78;2.55;;;;;;;34.41;35.23;98609.94;6160103;23;20253;-91
2022/08/07 08:08:08;;;;;;;7.07;3.08;;;;;;;34.67;34.39;98604.97;6185957;23;20223;-90
2022/08/07 08:10:35;;;;;;;5.53;2.92;;;;;;;34.82;35.12;98597.88;6159867;23;20241;-90
2022/08/07 08:13:05;;;;;;;5.38;2.78;;;;;;;34.99;33.87;98608.72;6160456;23;20151;-91
2022/08/07 08:15:49;;;;;;;4.03;2.35;;;;;;;35.11;32.88;98601.31;6160386;23;20150;-94
2022/08/07 08:18:15;;;;;;;3.38;2.17;;;;;;;35.13;32.74;98600.00;6159671;23;20142;-90
2022/08/07 08:20:43;;;;;;;3.42;2.15;;;;;;;35.30;32.10;98601.84;6185923;23;20151;-91
2022/08/07 08:28:47;;;;;;;4.43;2.58;;;;;;;36.00;32.13;98594.53;6186589;23;20224;-91
2022/08/07 08:31:19;;;;;;;4.32;2.30;;;;;;;36.13;31.12;98587.88;6159903;23;20689;-90
2022/08/07 08:33:46;;;;;;;4.38;2.38;;;;;;;36.28;31.31;98588.00;6185806;23;20131;-91
2022/08/07 08:36:15;;;;;;;3.47;2.03;;;;;;;36.26;30.72;98593.75;6159711;23;20150;-90
2022/08/07 08:38:47;;;;;;;4.82;1.95;;;;;;;36.13;30.57;98576.97;6186434;23;20151;-91
2022/08/07 08:41:25;;;;;;;2.88;1.75;;;;;;;35.90;30.81;98582.69;6159785;23;20673;-92
2022/08/07 08:43:59;;;;;;;3.90;2.38;;;;;;;35.90;30.05;98582.69;6160474;23;20161;-93
2022/08/07 08:46:40;;;;;;;6.15;2.20;;;;;;;36.11;30.37;98585.38;6159789;23;20173;-91
2022/08/07 08:49:42;;;;;;;6.22;2.33;;;;;;;36.18;29.56;98585.19;6186101;23;20204;-92
2022/08/07 08:52:12;;;;;;;5.53;2.35;;;;;;;36.11;29.87;98585.38;6130483;23;20222;-91
2022/08/07 08:55:15;;;;;;;4.45;2.08;;;;;;;35.89;29.93;98575.59;6156290;23;20163;-90
2022/08/07 08:57:57;;;;;;;5.25;2.35;;;;;;;36.10;29.82;98580.19;6156023;23;20158;-91
2022/08/07 09:00:31;;;;;;;5.68;1.88;;;;;;;36.33;29.38;98577.97;6130279;23;20147;-92
2022/08/07 09:03:11;;;;;;;2.90;1.48;;;;;;;36.49;28.58;98569.91;6130230;23;20138;-91
2022/08/07 09:05:50;;;;;;;6.10;1.83;;;;;;;36.75;28.89;98566.28;6155812;23;20625;-91
2022/08/07 09:08:45;;;;;;;4.93;2.00;;;;;;;36.58;28.69;98571.94;6131365;23;20230;-92
2022/08/07 09:11:23;;;;;;;3.60;1.90;;;;;;;36.54;29.30;98567.22;6156158;23;20162;-91
2022/08/07 09:14:06;;;;;;;3.95;2.58;;;;;;;36.67;28.80;98567.59;6156566;23;20520;-90
2022/08/07 09:17:04;;;;;;;5.18;2.35;;;;;;;36.49;28.23;98573.47;6156143;23;20141;-92
2022/08/07 09:19:48;;;;;;;2.53;1.50;;;;;;;36.40;28.44;98572.28;6154806;23;20586;-91
2022/08/07 09:22:51;;;;;;;2.88;1.60;;;;;;;36.45;29.99;98566.06;6156421;23;20150;-91
2022/08/07 09:25:45;;;;;;;4.35;2.22;;;;;;;36.54;28.81;98578.16;6155991;23;20186;-92
2022/08/07 09:28:37;;;;;;;5.18;2.30;;;;;;;36.39;28.57;98565.19;6132012;23;20197;-92
2022/08/07 09:31:41;;;;;;;2.88;1.63;;;;;;;36.99;28.64;98556.66;6158468;23;20135;-91
2022/08/07 09:35:15;;;;;;;3.88;1.90;;;;;;;37.34;27.96;98561.47;6130652;23;20166;-91
2022/08/07 09:37:49;;;;;;;3.60;1.88;;;;;;;37.55;27.44;98553.09;6034000;23;20504;-91
2022/08/07 09:40:25;;;;;;;4.75;2.25;;;;;;;37.48;27.34;98551.69;6072741;23;20469;-90
2022/08/07 09:43:21;;;;;;;4.20;2.30;;;;;;;37.37;27.89;98552.75;6096724;23;20156;-91
2022/08/07 09:46:17;;;;;;;3.50;1.90;;;;;;;37.12;27.68;98550.72;6118492;23;20187;-91
2022/08/07 09:49:06;;;;;;;4.65;1.80;;;;;;;36.95;27.66;98548.16;6127695;23;20144;-91
2022/08/07 09:51:59;;;;;;;4.38;2.15;;;;;;;36.36;28.47;98547.41;6151242;23;20202;-91
2022/08/07 09:54:39;;;;;;;3.83;2.10;;;;;;;36.41;28.98;98551.25;6127799;23;20136;-90
2022/08/07 09:57:43;;;;;;;2.67;1.63;;;;;;;36.44;28.77;98557.03;6127918;23;20536;-91
2022/08/07 10:00:13;;;;;;;2.78;1.80;;;;;;;36.39;28.98;98540.59;6128057;23;20147;-90
2022/08/07 10:02:51;;;;;;;5.00;2.13;;;;;;;36.35;28.78;98536.75;6126393;23;20485;-91
2022/08/07 10:05:55;;;;;;;3.67;1.88;;;;;;;36.54;28.93;98527.09;6127562;23;20182;-90
2022/08/07 10:08:32;;;;;;;3.13;1.90;;;;;;;36.55;28.59;98528.75;6127701;23;20131;-90
2022/08/07 10:11:36;;;;;;;3.42;1.58;;;;;;;36.66;27.94;98527.72;6126477;23;20178;-91
2022/08/07 10:14:34;;;;;;;3.67;1.73;;;;;;;36.37;28.47;98527.22;6067791;23;20202;-91
2022/08/07 10:17:38;;;;;;;5.30;1.85;;;;;;;36.10;28.73;98528.34;6067135;23;20165;-90
2022/08/07 10:20:40;;;;;;;3.80;2.15;;;;;;;36.32;28.68;98521.72;6124341;23;20155;-91
2022/08/07 10:23:44;;;;;;;3.22;1.98;;;;;;;36.43;28.18;98519.09;6127622;23;20557;-91
2022/08/07 10:26:47;;;;;;;5.30;2.15;;;;;;;36.37;28.41;98515.47;6126761;23;20607;-90
2022/08/07 10:29:46;;;;;;;5.68;2.50;;;;;;;36.17;28.26;98518.84;6127927;23;20140;-90
2022/08/07 10:32:53;;;;;;;2.95;1.73;;;;;;;36.08;28.75;98514.16;6127469;23;20136;-90
2022/08/07 10:35:49;;;;;;;3.97;1.98;;;;;;;35.97;28.49;98520.56;6125698;23;20175;-89
2022/08/07 10:38:19;;;;;;;3.72;2.28;;;;;;;35.96;28.64;98514.28;6126170;23;20664;-90
2022/08/07 10:40:54;;;;;;;3.03;1.98;;;;;;;36.11;28.81;98516.38;6135883;23;20199;-89
2022/08/07 10:43:25;;;;;;;3.85;1.90;;;;;;;36.05;28.55;98517.41;6130926;23;20154;-91
2022/08/07 10:45:59;;;;;;;4.50;1.70;;;;;;;36.12;28.26;98510.63;6131055;23;20254;-90
2022/08/07 10:48:47;;;;;;;4.93;1.45;;;;;;;36.21;28.07;98519.19;6131073;23;20151;-90
2022/08/07 10:51:48;;;;;;;3.90;2.30;;;;;;;36.27;28.68;98507.19;6131016;23;20556;-90
2022/08/07 10:54:52;;;;;;;7.03;1.85;;;;;;;36.74;28.26;98504.56;6156979;23;20132;-90
2022/08/07 10:57:58;;;;;;;4.47;2.70;;;;;;;36.86;27.94;98502.44;6131347;23;20154;-89
2022/08/07 11:00:33;;;;;;;4.28;1.95;;;;;;;36.80;27.12;98507.06;6114116;23;20245;-90
2022/08/07 11:03:33;;;;;;;7.70;1.92;;;;;;;36.72;27.10;98493.91;6155286;23;20147;-90
2022/08/07 11:06:12;;;;;;;4.22;2.30;;;;;;;36.57;27.40;98502.00;6136955;23;20187;-90
2022/08/07 11:09:03;;;;;;;4.55;2.00;;;;;;;36.30;27.40;98506.66;6130625;23;20575;-90
2022/08/07 11:11:45;;;;;;;3.45;2.17;;;;;;;36.06;27.39;98505.41;6156590;23;20132;-91
2022/08/07 11:14:21;;;;;;;5.53;2.33;;;;;;;35.86;27.68;98510.63;6156757;23;20132;-90
2022/08/07 11:17:05;;;;;;;4.80;2.60;;;;;;;35.76;27.65;98501.28;6156727;23;20139;-91
2022/08/07 11:19:54;;;;;;;4.07;2.28;;;;;;;35.77;28.37;98511.09;6130506;23;20305;-90
2022/08/07 11:23:10;;;;;;;4.55;2.00;;;;;;;35.85;29.09;98507.06;6131256;23;20587;-91
2022/08/07 11:26:00;;;;;;;4.40;2.30;;;;;;;35.77;30.15;98502.91;6155543;23;20175;-90
2022/08/07 11:28:33;;;;;;;5.18;2.55;;;;;;;35.88;30.87;98497.56;6130125;23;20163;-90
2022/08/07 11:31:07;;;;;;;4.70;2.38;;;;;;;35.90;30.63;98506.31;6130817;23;20150;-90
2022/08/07 11:33:53;;;;;;;3.78;2.25;;;;;;;35.70;30.06;98491.38;6130601;23;20201;-90
2022/08/07 11:36:43;;;;;;;6.07;2.33;;;;;;;35.76;30.95;98492.28;6156797;23;20266;-91
2022/08/07 11:39:47;;;;;;;4.93;2.33;;;;;;;35.75;30.39;98485.16;6130738;23;20162;-90
2022/08/07 11:42:31;;;;;;;3.28;2.30;;;;;;;35.78;31.46;98482.75;6129915;23;20199;-90
2022/08/07 11:45:56;;;;;;;3.80;2.30;;;;;;;36.15;30.65;98473.81;6129595;23;20686;-90
2022/08/07 11:48:59;;;;;;;5.15;2.58;;;;;;;36.42;28.84;98450.00;6099923;23;20155;-90
2022/08/07 11:52:20;;;;;;;;;;;;;;;;;;;;;
2022/08/07 11:55:07;;;;;;;2.95;1.92;;;;;;;37.00;27.87;98448.16;6124488;23;20239;-90
2022/08/07 11:57:52;;;;;;;4.22;2.17;;;;;;;37.15;27.18;98445.50;6099820;23;20244;-92
2022/08/07 12:01:06;;;;;;;4.93;2.70;;;;;;;37.07;26.22;98457.75;6124817;23;20537;-91
2022/08/07 12:03:56;;;;;;;3.72;2.05;;;;;;;37.12;26.17;98451.47;6015011;23;20501;-91
2022/08/07 12:06:40;;;;;;;3.50;2.00;;;;;;;37.16;26.30;98455.34;6099266;23;20227;-91
2022/08/07 12:09:27;;;;;;;2.67;1.70;;;;;;;37.21;26.51;98452.63;6124609;23;20159;-90
2022/08/07 12:12:08;;;;;;;4.00;1.90;;;;;;;37.26;24.70;98447.16;6124485;23;20155;-91
2022/08/07 12:14:47;;;;;;;4.63;1.98;;;;;;;37.49;25.75;98439.31;6123744;23;20673;-91